createdAt,value
2017-10-18T00:01:03.756Z,1012.55
2017-10-18T00:02:15.679Z,1012.51
2017-10-18T00:03:27.925Z,1012.5
2017-10-18T00:04:40.443Z,1012.5
2017-10-18T00:05:52.381Z,1012.51
2017-10-18T00:07:04.936Z,1012.47
2017-10-18T00:08:17.180Z,1012.51
2017-10-18T00:09:29.417Z,1012.52
2017-10-18T00:10:41.048Z,1012.53
2017-10-18T00:11:53.293Z,1012.51
2017-10-18T00:13:05.863Z,1012.47
2017-10-18T00:14:18.134Z,1012.49
2017-10-18T00:15:30.705Z,1012.49
2017-10-18T00:16:42.950Z,1012.51
2017-10-18T00:17:55.513Z,1012.52
2017-10-18T00:19:07.769Z,1012.5
2017-10-18T00:20:20.338Z,1012.45
2017-10-18T00:21:32.586Z,1012.48
2017-10-18T00:22:45.152Z,1012.46
2017-10-18T00:23:57.725Z,1012.47
2017-10-18T00:25:09.973Z,1012.46
2017-10-18T00:26:22.214Z,1012.45
2017-10-18T00:27:34.790Z,1012.45
2017-10-18T00:28:47.033Z,1012.49
2017-10-18T00:29:58.968Z,1012.44
2017-10-18T00:31:11.222Z,1012.46
2017-10-18T00:32:23.470Z,1012.45
2017-10-18T00:33:36.039Z,1012.46
2017-10-18T00:34:48.610Z,1012.43
2017-10-18T00:36:00.854Z,1012.38
2017-10-18T00:37:13.026Z,1012.35
2017-10-18T00:38:24.965Z,1012.34
2017-10-18T00:39:37.522Z,1012.32
2017-10-18T00:40:50.087Z,1012.27
2017-10-18T00:42:02.660Z,1012.27
2017-10-18T00:43:14.936Z,1012.22
2017-10-18T00:44:27.166Z,1012.21
2017-10-18T00:45:39.720Z,1012.16
2017-10-18T00:46:51.966Z,1012.14
2017-10-18T00:48:04.228Z,1012.16
2017-10-18T00:49:16.784Z,1012.15
2017-10-18T00:50:29.352Z,1012.14
2017-10-18T00:51:41.917Z,1012.14
2017-10-18T00:52:54.161Z,1012.12
2017-10-18T00:54:06.415Z,1012.12
2017-10-18T00:55:18.984Z,1012.08
2017-10-18T00:56:30.911Z,1012.12
2017-10-18T00:57:43.151Z,1012.05
2017-10-18T00:58:55.422Z,1012.08
2017-10-18T01:00:07.993Z,1012.06
2017-10-18T01:01:20.242Z,1012.05
2017-10-18T01:02:32.809Z,1012.06
2017-10-18T01:03:45.381Z,1012.03
2017-10-18T01:04:57.952Z,1012.08
2017-10-18T01:06:09.877Z,1012.06
2017-10-18T01:07:22.448Z,1012.03
2017-10-18T01:08:34.688Z,1011.98
2017-10-18T01:09:47.188Z,1011.99
2017-10-18T01:10:59.753Z,1012
2017-10-18T01:12:12.325Z,1011.96
2017-10-18T01:13:24.912Z,1011.99
2017-10-18T01:14:37.495Z,1012
2017-10-18T01:15:50.064Z,1011.98
2017-10-18T01:17:02.638Z,1011.92
2017-10-18T01:18:15.201Z,1011.9
2017-10-18T01:19:27.123Z,1011.88
2017-10-18T01:20:39.370Z,1011.85
2017-10-18T01:21:51.307Z,1011.87
2017-10-18T01:23:03.885Z,1011.86
2017-10-18T01:24:16.458Z,1011.84
2017-10-18T01:25:28.703Z,1011.8
2017-10-18T01:26:41.289Z,1011.81
2017-10-18T01:27:52.899Z,1011.81
2017-10-18T01:29:05.464Z,1011.8
2017-10-18T01:30:17.711Z,1011.75
2017-10-18T01:31:30.530Z,1011.72
2017-10-18T01:32:42.450Z,1011.75
2017-10-18T01:33:54.697Z,1011.68
2017-10-18T01:35:06.958Z,1011.72
2017-10-18T01:36:19.515Z,1011.66
2017-10-18T01:37:32.107Z,1011.65
2017-10-18T01:38:44.354Z,1011.66
2017-10-18T01:39:56.924Z,1011.62
2017-10-18T01:41:09.170Z,1011.64
2017-10-18T01:42:21.720Z,1011.67
2017-10-18T01:43:33.964Z,1011.63
2017-10-18T01:44:45.883Z,1011.63
2017-10-18T01:45:58.454Z,1011.61
2017-10-18T01:47:10.390Z,1011.62
2017-10-18T01:48:22.320Z,1011.56
2017-10-18T01:49:34.265Z,1011.61
2017-10-18T01:50:46.512Z,1011.6
2017-10-18T01:51:59.082Z,1011.63
2017-10-18T01:53:11.252Z,1011.6
2017-10-18T01:54:23.823Z,1011.57
2017-10-18T01:55:36.067Z,1011.56
2017-10-18T01:56:48.638Z,1011.53
2017-10-18T01:58:01.213Z,1011.5
2017-10-18T01:59:13.455Z,1011.49
2017-10-18T02:00:25.701Z,1011.48
2017-10-18T02:01:38.270Z,1011.47
2017-10-18T02:02:50.841Z,1011.47
2017-10-18T02:04:03.413Z,1011.42
2017-10-18T02:05:15.982Z,1011.4
2017-10-18T02:06:28.555Z,1011.41
2017-10-18T02:07:41.148Z,1011.42
2017-10-18T02:08:53.719Z,1011.42
2017-10-18T02:10:05.965Z,1011.39
2017-10-18T02:11:18.211Z,1011.42
2017-10-18T02:12:30.780Z,1011.44
2017-10-18T02:13:42.704Z,1011.44
2017-10-18T02:14:55.278Z,1011.46
2017-10-18T02:16:07.842Z,1011.43
2017-10-18T02:17:20.414Z,1011.44
2017-10-18T02:18:32.987Z,1011.44
2017-10-18T02:19:45.554Z,1011.42
2017-10-18T02:20:57.804Z,1011.39
2017-10-18T02:22:10.371Z,1011.35
2017-10-18T02:23:22.946Z,1011.37
2017-10-18T02:24:35.239Z,1011.35
2017-10-18T02:25:47.165Z,1011.32
2017-10-18T02:26:59.732Z,1011.32
2017-10-18T02:28:11.975Z,1011.35
2017-10-18T02:29:24.237Z,1011.33
2017-10-18T02:30:36.167Z,1011.29
2017-10-18T02:31:48.737Z,1011.32
2017-10-18T02:33:00.685Z,1011.28
2017-10-18T02:34:13.246Z,1011.29
2017-10-18T02:35:25.474Z,1011.25
2017-10-18T02:36:37.413Z,1011.27
2017-10-18T02:37:49.983Z,1011.29
2017-10-18T02:39:02.540Z,1011.26
2017-10-18T02:40:14.782Z,1011.29
2017-10-18T02:41:27.353Z,1011.29
2017-10-18T02:42:39.923Z,1011.25
2017-10-18T02:43:52.186Z,1011.26
2017-10-18T02:45:04.765Z,1011.24
2017-10-18T02:46:17.335Z,1011.28
2017-10-18T02:47:29.922Z,1011.27
2017-10-18T02:48:42.481Z,1011.27
2017-10-18T02:49:54.714Z,1011.21
2017-10-18T02:51:07.269Z,1011.24
2017-10-18T02:52:19.515Z,1011.21
2017-10-18T02:53:32.333Z,1011.23
2017-10-18T02:54:44.909Z,1011.22
2017-10-18T02:55:57.474Z,1011.24
2017-10-18T02:57:09.720Z,1011.24
2017-10-18T02:58:22.572Z,1011.27
2017-10-18T02:59:35.171Z,1011.28
2017-10-18T03:00:47.735Z,1011.34
2017-10-18T03:02:00.295Z,1011.29
2017-10-18T03:03:12.550Z,1011.3
2017-10-18T03:04:25.121Z,1011.3
2017-10-18T03:05:37.039Z,1011.3
2017-10-18T03:06:49.285Z,1011.29
2017-10-18T03:08:01.834Z,1011.26
2017-10-18T03:09:13.431Z,1011.27
2017-10-18T03:10:25.676Z,1011.28
2017-10-18T03:11:37.919Z,1011.3
2017-10-18T03:12:50.491Z,1011.25
2017-10-18T03:14:03.060Z,1011.27
2017-10-18T03:15:15.305Z,1011.24
2017-10-18T03:16:27.876Z,1011.26
2017-10-18T03:17:40.447Z,1011.29
2017-10-18T03:18:52.994Z,1011.31
2017-10-18T03:20:05.880Z,1011.34
2017-10-18T03:21:18.126Z,1011.38
2017-10-18T03:22:30.684Z,1011.35
2017-10-18T03:23:43.248Z,1011.34
2017-10-18T03:24:55.820Z,1011.41
2017-10-18T03:26:08.070Z,1011.37
2017-10-18T03:27:20.311Z,1011.39
2017-10-18T03:28:32.583Z,1011.4
2017-10-18T03:29:45.157Z,1011.4
2017-10-18T03:30:58.000Z,1011.39
2017-10-18T03:32:10.262Z,1011.4
2017-10-18T03:33:22.840Z,1011.39
2017-10-18T03:34:35.410Z,1011.37
2017-10-18T03:35:47.982Z,1011.35
2017-10-18T03:37:00.551Z,1011.33
2017-10-18T03:38:13.122Z,1011.36
2017-10-18T03:39:25.694Z,1011.36
2017-10-18T03:40:38.264Z,1011.37
2017-10-18T03:41:51.085Z,1011.38
2017-10-18T03:43:03.653Z,1011.41
2017-10-18T03:44:16.229Z,1011.39
2017-10-18T03:45:28.797Z,1011.43
2017-10-18T03:46:41.364Z,1011.42
2017-10-18T03:47:53.944Z,1011.42
2017-10-18T03:49:05.885Z,1011.41
2017-10-18T03:50:18.128Z,1011.45
2017-10-18T03:51:30.378Z,1011.4
2017-10-18T03:52:42.970Z,1011.34
2017-10-18T03:53:55.566Z,1011.34
2017-10-18T03:55:08.136Z,1011.39
2017-10-18T03:56:20.386Z,1011.36
2017-10-18T03:57:32.628Z,1011.38
2017-10-18T03:58:45.198Z,1011.34
2017-10-18T03:59:57.767Z,1011.36
2017-10-18T04:01:10.332Z,1011.36
2017-10-18T04:02:22.585Z,1011.32
2017-10-18T04:03:34.779Z,1011.32
2017-10-18T04:04:47.033Z,1011.32
2017-10-18T04:05:59.272Z,1011.26
2017-10-18T04:07:11.517Z,1011.24
2017-10-18T04:08:24.089Z,1011.22
2017-10-18T04:09:36.360Z,1011.22
2017-10-18T04:10:48.929Z,1011.23
2017-10-18T04:12:01.175Z,1011.24
2017-10-18T04:13:12.788Z,1011.23
2017-10-18T04:14:25.342Z,1011.24
2017-10-18T04:15:37.914Z,1011.25
2017-10-18T04:16:50.483Z,1011.18
2017-10-18T04:18:03.082Z,1011.17
2017-10-18T04:19:15.352Z,1011.17
2017-10-18T04:20:27.619Z,1011.11
2017-10-18T04:21:40.191Z,1011.14
2017-10-18T04:22:52.110Z,1011.11
2017-10-18T04:24:04.361Z,1011.14
2017-10-18T04:25:16.945Z,1011.16
2017-10-18T04:26:29.503Z,1011.17
2017-10-18T04:27:42.070Z,1011.18
2017-10-18T04:28:54.617Z,1011.17
2017-10-18T04:30:07.186Z,1011.18
2017-10-18T04:31:19.756Z,1011.12
2017-10-18T04:32:32.326Z,1011.16
2017-10-18T04:33:44.247Z,1011.12
2017-10-18T04:34:56.495Z,1011.09
2017-10-18T04:36:09.064Z,1011.06
2017-10-18T04:37:21.309Z,1011.07
2017-10-18T04:38:33.557Z,1011.08
2017-10-18T04:39:45.800Z,1011.08
2017-10-18T04:40:58.063Z,1011.02
2017-10-18T04:42:10.344Z,1011.04
2017-10-18T04:43:22.923Z,1011.04
2017-10-18T04:44:35.484Z,1011.02
2017-10-18T04:45:47.730Z,1011.04
2017-10-18T04:47:00.300Z,1011.01
2017-10-18T04:48:12.898Z,1011.01
2017-10-18T04:49:25.468Z,1010.98
2017-10-18T04:50:37.390Z,1010.96
2017-10-18T04:51:49.631Z,1010.99
2017-10-18T04:53:02.203Z,1010.96
2017-10-18T04:54:14.448Z,1010.98
2017-10-18T04:55:27.019Z,1010.92
2017-10-18T04:56:39.289Z,1010.97
2017-10-18T04:57:52.113Z,1010.94
2017-10-18T04:59:04.034Z,1011
2017-10-18T05:00:16.604Z,1010.99
2017-10-18T05:01:28.871Z,1011
2017-10-18T05:02:41.118Z,1011.01
2017-10-18T05:03:53.363Z,1010.96
2017-10-18T05:05:05.959Z,1010.96
2017-10-18T05:06:18.205Z,1010.98
2017-10-18T05:07:30.456Z,1010.93
2017-10-18T05:08:43.020Z,1010.88
2017-10-18T05:09:55.593Z,1010.91
2017-10-18T05:11:07.536Z,1010.93
2017-10-18T05:12:19.782Z,1010.94
2017-10-18T05:13:32.029Z,1010.96
2017-10-18T05:14:44.600Z,1010.93
2017-10-18T05:15:56.847Z,1010.91
2017-10-18T05:17:08.816Z,1010.93
2017-10-18T05:18:21.060Z,1010.94
2017-10-18T05:19:33.584Z,1010.98
2017-10-18T05:20:46.153Z,1010.94
2017-10-18T05:21:58.422Z,1010.98
2017-10-18T05:23:10.693Z,1010.92
2017-10-18T05:24:23.239Z,1010.97
2017-10-18T05:25:35.477Z,1011
2017-10-18T05:26:47.423Z,1011.01
2017-10-18T05:28:00.001Z,1011
2017-10-18T05:29:12.572Z,1010.98
2017-10-18T05:30:24.824Z,1011.02
2017-10-18T05:31:37.390Z,1010.95
2017-10-18T05:32:49.960Z,1010.97
2017-10-18T05:34:02.532Z,1010.95
2017-10-18T05:35:14.450Z,1010.99
2017-10-18T05:36:27.037Z,1010.99
2017-10-18T05:37:39.617Z,1011.01
2017-10-18T05:38:52.186Z,1011.07
2017-10-18T05:40:04.438Z,1011.09
2017-10-18T05:41:17.254Z,1011.11
2017-10-18T05:42:29.499Z,1011.09
2017-10-18T05:43:41.770Z,1011.06
2017-10-18T05:44:54.382Z,1011.05
2017-10-18T05:46:06.963Z,1011.06
2017-10-18T05:47:19.536Z,1011.05
2017-10-18T05:48:31.783Z,1011.08
2017-10-18T05:49:44.326Z,1011.05
2017-10-18T05:50:56.568Z,1011.05
2017-10-18T05:52:08.519Z,1011.07
2017-10-18T05:53:20.755Z,1011.03
2017-10-18T05:54:33.014Z,1011.06
2017-10-18T05:55:45.575Z,1011.08
2017-10-18T05:56:58.150Z,1011.08
2017-10-18T05:58:10.417Z,1011.09
2017-10-18T05:59:22.663Z,1011.1
2017-10-18T06:00:35.237Z,1011.1
2017-10-18T06:01:47.480Z,1011.09
2017-10-18T06:02:59.751Z,1011.1
2017-10-18T06:04:12.346Z,1011.14
2017-10-18T06:05:24.266Z,1011.09
2017-10-18T06:06:36.841Z,1011.18
2017-10-18T06:07:49.409Z,1011.11
2017-10-18T06:09:01.331Z,1011.14
2017-10-18T06:10:13.602Z,1011.17
2017-10-18T06:11:25.845Z,1011.18
2017-10-18T06:12:38.416Z,1011.23
2017-10-18T06:13:50.989Z,1011.26
2017-10-18T06:15:03.249Z,1011.34
2017-10-18T06:16:15.828Z,1011.35
2017-10-18T06:17:28.072Z,1011.37
2017-10-18T06:18:40.322Z,1011.34
2017-10-18T06:19:52.897Z,1011.33
2017-10-18T06:21:05.139Z,1011.25
2017-10-18T06:22:17.705Z,1011.25
2017-10-18T06:23:30.276Z,1011.23
2017-10-18T06:24:42.200Z,1011.25
2017-10-18T06:25:54.444Z,1011.28
2017-10-18T06:27:06.363Z,1011.33
2017-10-18T06:28:18.934Z,1011.31
2017-10-18T06:29:31.506Z,1011.34
2017-10-18T06:30:44.074Z,1011.35
2017-10-18T06:31:56.645Z,1011.31
2017-10-18T06:33:08.892Z,1011.3
2017-10-18T06:34:21.155Z,1011.28
2017-10-18T06:35:33.725Z,1011.27
2017-10-18T06:36:46.284Z,1011.28
2017-10-18T06:37:58.546Z,1011.31
2017-10-18T06:39:11.098Z,1011.32
2017-10-18T06:40:23.666Z,1011.34
2017-10-18T06:41:35.585Z,1011.37
2017-10-18T06:42:48.156Z,1011.38
2017-10-18T06:44:00.402Z,1011.34
2017-10-18T06:45:12.975Z,1011.36
2017-10-18T06:46:25.549Z,1011.36
2017-10-18T06:47:38.133Z,1011.34
2017-10-18T06:48:50.691Z,1011.28
2017-10-18T06:50:02.631Z,1011.35
2017-10-18T06:51:15.201Z,1011.39
2017-10-18T06:52:27.778Z,1011.4
2017-10-18T06:53:40.017Z,1011.42
2017-10-18T06:54:51.941Z,1011.45
2017-10-18T06:56:04.183Z,1011.48
2017-10-18T06:57:16.679Z,1011.52
2017-10-18T06:58:28.606Z,1011.51
2017-10-18T06:59:40.845Z,1011.47
2017-10-18T07:00:53.417Z,1011.46
2017-10-18T07:02:05.987Z,1011.47
2017-10-18T07:03:18.561Z,1011.45
2017-10-18T07:04:31.146Z,1011.46
2017-10-18T07:05:43.705Z,1011.46
2017-10-18T07:06:56.268Z,1011.48
2017-10-18T07:08:08.840Z,1011.47
2017-10-18T07:09:21.435Z,1011.44
2017-10-18T07:10:34.007Z,1011.48
2017-10-18T07:11:46.601Z,1011.46
2017-10-18T07:12:58.540Z,1011.5
2017-10-18T07:14:11.118Z,1011.46
2017-10-18T07:15:23.714Z,1011.49
2017-10-18T07:16:36.001Z,1011.48
2017-10-18T07:17:48.582Z,1011.45
2017-10-18T07:19:00.768Z,1011.43
2017-10-18T07:20:13.021Z,1011.41
2017-10-18T07:21:25.591Z,1011.43
2017-10-18T07:22:37.538Z,1011.39
2017-10-18T07:23:50.108Z,1011.44
2017-10-18T07:25:02.372Z,1011.46
2017-10-18T07:26:14.625Z,1011.44
2017-10-18T07:27:27.195Z,1011.42
2017-10-18T07:28:39.443Z,1011.46
2017-10-18T07:29:52.010Z,1011.44
2017-10-18T07:31:04.283Z,1011.47
2017-10-18T07:32:16.853Z,1011.51
2017-10-18T07:33:29.426Z,1011.48
2017-10-18T07:34:41.670Z,1011.47
2017-10-18T07:35:54.240Z,1011.44
2017-10-18T07:37:06.809Z,1011.45
2017-10-18T07:38:18.732Z,1011.42
2017-10-18T07:39:31.304Z,1011.39
2017-10-18T07:40:44.126Z,1011.38
2017-10-18T07:41:56.694Z,1011.4
2017-10-18T07:43:08.935Z,1011.43
2017-10-18T07:44:21.510Z,1011.4
2017-10-18T07:45:33.773Z,1011.43
2017-10-18T07:46:46.326Z,1011.44
2017-10-18T07:47:58.897Z,1011.45
2017-10-18T07:49:11.469Z,1011.43
2017-10-18T07:50:24.040Z,1011.43
2017-10-18T07:51:35.982Z,1011.39
2017-10-18T07:52:48.552Z,1011.4
2017-10-18T07:54:00.806Z,1011.38
2017-10-18T07:55:13.370Z,1011.36
2017-10-18T07:56:25.620Z,1011.35
2017-10-18T07:57:37.537Z,1011.37
2017-10-18T07:58:49.782Z,1011.31
2017-10-18T08:00:01.725Z,1011.34
2017-10-18T08:01:13.978Z,1011.3
2017-10-18T08:02:26.170Z,1011.33
2017-10-18T08:03:38.739Z,1011.29
2017-10-18T08:04:50.340Z,1011.29
2017-10-18T08:06:02.560Z,1011.23
2017-10-18T08:07:15.127Z,1011.21
2017-10-18T08:08:27.700Z,1011.21
2017-10-18T08:09:40.260Z,1011.19
2017-10-18T08:10:52.520Z,1011.21
2017-10-18T08:12:04.779Z,1011.25
2017-10-18T08:13:17.560Z,1011.22
2017-10-18T08:14:30.127Z,1011.22
2017-10-18T08:15:42.373Z,1011.22
2017-10-18T08:16:54.616Z,1011.24
2017-10-18T08:18:07.187Z,1011.23
2017-10-18T08:19:19.760Z,1011.25
2017-10-18T08:20:31.681Z,1011.23
2017-10-18T08:21:43.606Z,1011.25
2017-10-18T08:22:56.169Z,1011.25
2017-10-18T08:24:08.741Z,1011.18
2017-10-18T08:25:21.311Z,1011.18
2017-10-18T08:26:33.910Z,1011.24
2017-10-18T08:27:46.482Z,1011.23
2017-10-18T08:28:59.048Z,1011.22
2017-10-18T08:30:10.643Z,1011.21
2017-10-18T08:31:22.906Z,1011.21
2017-10-18T08:32:35.486Z,1011.21
2017-10-18T08:33:47.733Z,1011.19
2017-10-18T08:35:00.319Z,1011.22
2017-10-18T08:36:12.901Z,1011.22
2017-10-18T08:37:25.145Z,1011.25
2017-10-18T08:38:37.391Z,1011.26
2017-10-18T08:39:49.309Z,1011.24
2017-10-18T08:41:01.885Z,1011.28
2017-10-18T08:42:13.479Z,1011.27
2017-10-18T08:43:26.077Z,1011.25
2017-10-18T08:44:38.320Z,1011.27
2017-10-18T08:45:50.565Z,1011.27
2017-10-18T08:47:02.812Z,1011.27
2017-10-18T08:48:15.070Z,1011.3
2017-10-18T08:49:27.006Z,1011.25
2017-10-18T08:50:39.272Z,1011.2
2017-10-18T08:51:51.840Z,1011.25
2017-10-18T08:53:04.411Z,1011.26
2017-10-18T08:54:16.674Z,1011.25
2017-10-18T08:55:29.244Z,1011.25
2017-10-18T08:56:41.524Z,1011.25
2017-10-18T08:57:53.770Z,1011.2
2017-10-18T08:59:06.031Z,1011.22
2017-10-18T09:00:18.308Z,1011.17
2017-10-18T09:01:30.897Z,1011.16
2017-10-18T09:02:43.130Z,1011.2
2017-10-18T09:03:55.689Z,1011.18
2017-10-18T09:05:07.968Z,1011.18
2017-10-18T09:06:19.587Z,1011.21
2017-10-18T09:07:31.201Z,1011.2
2017-10-18T09:08:43.772Z,1011.21
2017-10-18T09:09:56.025Z,1011.21
2017-10-18T09:11:08.273Z,1011.22
2017-10-18T09:12:19.873Z,1011.19
2017-10-18T09:13:32.115Z,1011.21
2017-10-18T09:14:44.035Z,1011.18
2017-10-18T09:15:56.279Z,1011.17
2017-10-18T09:17:08.224Z,1011.15
2017-10-18T09:18:20.399Z,1011.15
2017-10-18T09:19:32.985Z,1011.12
2017-10-18T09:20:45.253Z,1011.16
2017-10-18T09:21:57.509Z,1011.1
2017-10-18T09:23:09.453Z,1011.06
2017-10-18T09:24:22.041Z,1011.13
2017-10-18T09:25:34.619Z,1011.08
2017-10-18T09:26:46.869Z,1011.07
2017-10-18T09:27:59.111Z,1011.08
2017-10-18T09:29:11.688Z,1011.08
2017-10-18T09:30:24.268Z,1011.09
2017-10-18T09:31:35.889Z,1011.08
2017-10-18T09:32:48.468Z,1011.07
2017-10-18T09:34:01.043Z,1011.07
2017-10-18T09:35:12.661Z,1011.09
2017-10-18T09:36:24.586Z,1011.07
2017-10-18T09:37:36.853Z,1011.03
2017-10-18T09:38:49.422Z,1011.04
2017-10-18T09:40:01.346Z,1010.99
2017-10-18T09:41:13.613Z,1011.01
2017-10-18T09:42:26.183Z,1010.95
2017-10-18T09:43:38.754Z,1010.94
2017-10-18T09:44:51.329Z,1010.95
2017-10-18T09:46:03.573Z,1010.94
2017-10-18T09:47:16.147Z,1010.97
2017-10-18T09:48:28.711Z,1010.95
2017-10-18T09:49:41.282Z,1010.96
2017-10-18T09:50:53.878Z,1010.95
2017-10-18T09:52:05.828Z,1010.95
2017-10-18T09:53:18.394Z,1010.96
2017-10-18T09:54:31.007Z,1010.96
2017-10-18T09:55:43.589Z,1010.92
2017-10-18T09:56:55.830Z,1010.94
2017-10-18T09:58:07.780Z,1010.93
2017-10-18T09:59:20.065Z,1010.95
2017-10-18T10:00:32.322Z,1010.96
2017-10-18T10:01:44.566Z,1010.96
2017-10-18T10:02:56.826Z,1010.91
2017-10-18T10:04:09.397Z,1010.92
2017-10-18T10:05:21.992Z,1010.91
2017-10-18T10:06:34.255Z,1010.96
2017-10-18T10:07:46.523Z,1010.92
2017-10-18T10:08:59.087Z,1010.94
2017-10-18T10:10:11.659Z,1010.93
2017-10-18T10:11:23.912Z,1010.93
2017-10-18T10:12:36.480Z,1010.91
2017-10-18T10:13:49.049Z,1010.91
2017-10-18T10:15:01.615Z,1010.93
2017-10-18T10:16:13.866Z,1010.86
2017-10-18T10:17:25.805Z,1010.91
2017-10-18T10:18:38.403Z,1010.85
2017-10-18T10:19:50.977Z,1010.87
2017-10-18T10:21:03.550Z,1010.89
2017-10-18T10:22:16.113Z,1010.9
2017-10-18T10:23:28.684Z,1010.9
2017-10-18T10:24:41.304Z,1010.86
2017-10-18T10:25:53.876Z,1010.86
2017-10-18T10:27:06.139Z,1010.89
2017-10-18T10:28:18.392Z,1010.85
2017-10-18T10:29:30.980Z,1010.87
2017-10-18T10:30:43.240Z,1010.86
2017-10-18T10:31:55.797Z,1010.89
2017-10-18T10:33:08.067Z,1010.87
2017-10-18T10:34:20.638Z,1010.83
2017-10-18T10:35:33.216Z,1010.82
2017-10-18T10:36:45.779Z,1010.84
2017-10-18T10:37:58.373Z,1010.8
2017-10-18T10:39:10.629Z,1010.82
2017-10-18T10:40:23.198Z,1010.8
2017-10-18T10:41:35.123Z,1010.78
2017-10-18T10:42:47.690Z,1010.74
2017-10-18T10:44:00.261Z,1010.75
2017-10-18T10:45:12.850Z,1010.75
2017-10-18T10:46:25.427Z,1010.75
2017-10-18T10:47:37.673Z,1010.76
2017-10-18T10:48:49.273Z,1010.72
2017-10-18T10:50:01.519Z,1010.73
2017-10-18T10:51:13.777Z,1010.75
2017-10-18T10:52:26.355Z,1010.71
2017-10-18T10:53:38.607Z,1010.71
2017-10-18T10:54:51.172Z,1010.7
2017-10-18T10:56:03.120Z,1010.69
2017-10-18T10:57:15.057Z,1010.6
2017-10-18T10:58:27.005Z,1010.6
2017-10-18T10:59:39.583Z,1010.62
2017-10-18T11:00:51.832Z,1010.56
2017-10-18T11:02:04.087Z,1010.53
2017-10-18T11:03:16.341Z,1010.52
2017-10-18T11:04:28.267Z,1010.51
2017-10-18T11:05:40.513Z,1010.51
2017-10-18T11:06:53.083Z,1010.47
2017-10-18T11:08:05.666Z,1010.47
2017-10-18T11:09:17.595Z,1010.47
2017-10-18T11:10:29.840Z,1010.41
2017-10-18T11:11:42.079Z,1010.42
2017-10-18T11:12:54.657Z,1010.4
2017-10-18T11:14:07.227Z,1010.4
2017-10-18T11:15:19.473Z,1010.38
2017-10-18T11:16:32.046Z,1010.39
2017-10-18T11:17:44.614Z,1010.37
2017-10-18T11:18:57.202Z,1010.34
2017-10-18T11:20:09.498Z,1010.33
2017-10-18T11:21:22.077Z,1010.34
2017-10-18T11:22:34.320Z,1010.31
2017-10-18T11:23:46.246Z,1010.28
2017-10-18T11:24:58.830Z,1010.28
2017-10-18T11:26:11.387Z,1010.24
2017-10-18T11:27:23.629Z,1010.23
2017-10-18T11:28:36.199Z,1010.23
2017-10-18T11:29:48.445Z,1010.22
2017-10-18T11:31:00.371Z,1010.22
2017-10-18T11:32:12.617Z,1010.16
2017-10-18T11:33:25.187Z,1010.19
2017-10-18T11:34:37.756Z,1010.14
2017-10-18T11:35:50.324Z,1010.16
2017-10-18T11:37:02.251Z,1010.13
2017-10-18T11:38:14.507Z,1010.14
2017-10-18T11:39:27.335Z,1010.17
2017-10-18T11:40:39.598Z,1010.13
2017-10-18T11:41:51.853Z,1010.12
2017-10-18T11:43:04.097Z,1010.14
2017-10-18T11:44:16.034Z,1010.16
2017-10-18T11:45:27.993Z,1010.12
2017-10-18T11:46:40.238Z,1010.07
2017-10-18T11:47:51.847Z,1010.06
2017-10-18T11:49:04.101Z,1010.01
2017-10-18T11:50:16.352Z,1010.02
2017-10-18T11:51:28.917Z,1010.01
2017-10-18T11:52:41.180Z,1010.02
2017-10-18T11:53:53.451Z,1010.04
2017-10-18T11:55:05.709Z,1010.05
2017-10-18T11:56:17.951Z,1010.01
2017-10-18T11:57:30.220Z,1009.98
2017-10-18T11:58:42.795Z,1010
2017-10-18T11:59:55.380Z,1010.02
2017-10-18T12:01:07.959Z,1009.97
2017-10-18T12:02:20.521Z,1009.96
2017-10-18T12:03:32.775Z,1009.96
2017-10-18T12:04:45.349Z,1009.94
2017-10-18T12:05:57.590Z,1009.95
2017-10-18T12:07:09.860Z,1009.95
2017-10-18T12:08:21.808Z,1009.91
2017-10-18T12:09:34.057Z,1009.88
2017-10-18T12:10:46.623Z,1009.87
2017-10-18T12:11:59.192Z,1009.83
2017-10-18T12:13:11.457Z,1009.81
2017-10-18T12:14:24.035Z,1009.84
2017-10-18T12:15:36.285Z,1009.83
2017-10-18T12:16:48.850Z,1009.8
2017-10-18T12:18:01.422Z,1009.76
2017-10-18T12:19:14.022Z,1009.73
2017-10-18T12:20:26.614Z,1009.71
2017-10-18T12:21:38.858Z,1009.75
2017-10-18T12:22:51.432Z,1009.7
2017-10-18T12:24:04.000Z,1009.72
2017-10-18T12:25:16.267Z,1009.75
2017-10-18T12:26:28.241Z,1009.73
2017-10-18T12:27:40.492Z,1009.77
2017-10-18T12:28:52.433Z,1009.74
2017-10-18T12:30:05.008Z,1009.73
2017-10-18T12:31:17.641Z,1009.77
2017-10-18T12:32:30.199Z,1009.75
2017-10-18T12:33:42.810Z,1009.71
2017-10-18T12:34:55.379Z,1009.7
2017-10-18T12:36:07.634Z,1009.69
2017-10-18T12:37:19.882Z,1009.65
2017-10-18T12:38:32.448Z,1009.67
2017-10-18T12:39:44.385Z,1009.66
2017-10-18T12:40:56.631Z,1009.68
2017-10-18T12:42:09.227Z,1009.66
2017-10-18T12:43:21.829Z,1009.68
2017-10-18T12:44:33.768Z,1009.68
2017-10-18T12:45:46.340Z,1009.65
2017-10-18T12:46:58.617Z,1009.63
2017-10-18T12:48:10.542Z,1009.64
2017-10-18T12:49:23.115Z,1009.66
2017-10-18T12:50:35.382Z,1009.63
2017-10-18T12:51:47.629Z,1009.68
2017-10-18T12:52:59.874Z,1009.6
2017-10-18T12:54:11.484Z,1009.63
2017-10-18T12:55:23.763Z,1009.65
2017-10-18T12:56:36.011Z,1009.63
2017-10-18T12:57:48.596Z,1009.63
2017-10-18T12:59:01.180Z,1009.62
2017-10-18T13:00:13.437Z,1009.57
2017-10-18T13:01:26.032Z,1009.62
2017-10-18T13:02:38.605Z,1009.59
2017-10-18T13:03:51.161Z,1009.57
2017-10-18T13:05:03.470Z,1009.53
2017-10-18T13:06:15.424Z,1009.48
2017-10-18T13:07:27.695Z,1009.51
2017-10-18T13:08:40.263Z,1009.49
2017-10-18T13:09:52.509Z,1009.51
2017-10-18T13:11:04.448Z,1009.44
2017-10-18T13:12:16.368Z,1009.44
2017-10-18T13:13:28.304Z,1009.44
2017-10-18T13:14:40.559Z,1009.43
2017-10-18T13:15:52.814Z,1009.45
2017-10-18T13:17:04.765Z,1009.43
2017-10-18T13:18:17.334Z,1009.39
2017-10-18T13:19:29.580Z,1009.4
2017-10-18T13:20:42.163Z,1009.44
2017-10-18T13:21:54.430Z,1009.47
2017-10-18T13:23:06.362Z,1009.46
2017-10-18T13:24:18.625Z,1009.44
2017-10-18T13:25:30.896Z,1009.42
2017-10-18T13:26:43.149Z,1009.4
2017-10-18T13:27:55.724Z,1009.38
2017-10-18T13:29:08.291Z,1009.38
2017-10-18T13:30:20.863Z,1009.4
2017-10-18T13:31:33.112Z,1009.43
2017-10-18T13:32:45.678Z,1009.41
2017-10-18T13:33:58.240Z,1009.37
2017-10-18T13:35:10.493Z,1009.37
2017-10-18T13:36:22.765Z,1009.38
2017-10-18T13:37:35.339Z,1009.38
2017-10-18T13:38:47.586Z,1009.35
2017-10-18T13:40:00.157Z,1009.3
2017-10-18T13:41:12.413Z,1009.32
2017-10-18T13:42:24.684Z,1009.29
2017-10-18T13:43:36.966Z,1009.3
2017-10-18T13:44:48.908Z,1009.3
2017-10-18T13:46:01.198Z,1009.26
2017-10-18T13:47:13.129Z,1009.24
2017-10-18T13:48:25.388Z,1009.27
2017-10-18T13:49:37.961Z,1009.3
2017-10-18T13:50:50.529Z,1009.3
2017-10-18T13:52:03.109Z,1009.29
2017-10-18T13:53:15.671Z,1009.34
2017-10-18T13:54:27.923Z,1009.32
2017-10-18T13:55:40.187Z,1009.35
2017-10-18T13:56:52.456Z,1009.31
2017-10-18T13:58:04.435Z,1009.3
2017-10-18T13:59:16.683Z,1009.31
2017-10-18T14:00:29.520Z,1009.3
2017-10-18T14:01:41.772Z,1009.28
2017-10-18T14:02:54.025Z,1009.28
2017-10-18T14:04:06.623Z,1009.29
2017-10-18T14:05:19.202Z,1009.28
2017-10-18T14:06:31.460Z,1009.25
2017-10-18T14:07:43.403Z,1009.26
2017-10-18T14:08:55.978Z,1009.25
2017-10-18T14:10:08.270Z,1009.27
2017-10-18T14:11:20.841Z,1009.3
2017-10-18T14:12:33.409Z,1009.26
2017-10-18T14:13:45.660Z,1009.19
2017-10-18T14:14:57.918Z,1009.26
2017-10-18T14:16:10.192Z,1009.24
2017-10-18T14:17:22.772Z,1009.27
2017-10-18T14:18:35.030Z,1009.28
2017-10-18T14:19:47.300Z,1009.27
2017-10-18T14:20:59.245Z,1009.26
2017-10-18T14:22:11.523Z,1009.28
2017-10-18T14:23:23.474Z,1009.3
2017-10-18T14:24:35.734Z,1009.27
2017-10-18T14:25:47.978Z,1009.29
2017-10-18T14:27:00.549Z,1009.28
2017-10-18T14:28:13.146Z,1009.25
2017-10-18T14:29:25.724Z,1009.23
2017-10-18T14:30:38.325Z,1009.24
2017-10-18T14:31:50.572Z,1009.2
2017-10-18T14:33:03.140Z,1009.24
2017-10-18T14:34:15.724Z,1009.24
2017-10-18T14:35:28.293Z,1009.23
2017-10-18T14:36:40.851Z,1009.23
2017-10-18T14:37:53.109Z,1009.23
2017-10-18T14:39:05.365Z,1009.22